Etusivu
METAR-TAF:

METAR-TAF

Lentoasemat :

Hope, Brittiläinen Kolumbia, Kanada

Leveyspiiri: 49-22N, Pituuspiiri: 121-29W, korkeus merenpinnasta: 39 m

Tämänhetkinen sää

Tämä raportti tehtiin 51 minuuttia sitten, kello 23.00 UTC
Tuuli 14 kn idästä/kaakosta
Lämpötila 6°C
Kosteus 87%
Ilmanpaine 997 hPa
Näkyvyys: 14.5 km
Muutamia pilviä 13000 ft:n korkeudessa
Pilvistä 15000 ft:n korkeudessa

METAR: CYHE 142300Z AUTO 11014KT 9SM FEW130 OVC150 06/04 A2943 RMK PRESFR SLP968

Aika: 15:51 (23:51 UTC)


TAF: puuttuu

Säähavainnot ja -ennusteet yli 4000 lentoasemalta (METAR- ja TAF-raportit).

Käytössä olevat sääasemat on merkitty karttaan keltaisilla ja punaisilla pisteillä.

Aseta hiiri pisteen päälle nähdäksesi sääaseman nimen.

Klikkaa sitten nähdäksesi säähavainnot ja -ennusteet.

Kartan vaihtaminen: klikkaa mustalla rastilla varustettuja vihreitä pisteitä, niin voit zoomata sisään; viivalla varustettua vihreää pistettä, niin voit zoomata ulos tai vihreitä nuolia, niin pääset viereisille kartoille.


METAR-TAF: